Time;durP1;ratioP1;P1;durP2;ratioP2;P2;SDS_P1;SDS_P2;PMS_P1;PMS_P2;Temp;Humidity;BMP_temperature;BMP_pressure;BME280_temperature;BME280_humidity;BME280_pressure;Samples;Min_cycle;Max_cycle;Signal;HPM_P1;HPM_P2
2022/09/01 00:04:08;;;;;;;1.60;1.20;;;;;;;;;;20906511;28;20270;-72
2022/09/01 00:14:11;;;;;;;2.23;1.33;;;19.60;99.90;;;;;;20907056;28;20234;-72
2022/09/01 00:24:15;;;;;;;4.47;1.70;;;19.50;99.90;;;;;;20918987;22;20669;-69
2022/09/01 00:34:17;;;;;;;2.27;1.40;;;;;;;;;;20905882;28;20209;-69
2022/09/01 00:44:26;;;;;;;1.33;0.97;;;19.40;99.90;;;;;;20903673;28;20281;-69
2022/09/01 00:54:32;;;;;;;2.63;1.40;;;19.40;99.90;;;;;;20904500;28;20207;-70
2022/09/01 01:04:34;;;;;;;2.13;1.20;;;;;;;;;;20904107;28;20691;-69
2022/09/01 01:14:36;;;;;;;1.50;1.10;;;;;;;;;;20886098;28;20273;-69
2022/09/01 01:24:37;;;;;;;1.70;1.10;;;;;;;;;;20903776;28;20217;-69
2022/09/01 01:34:42;;;;;;;1.47;1.07;;;;;;;;;;20885642;28;20209;-69
2022/09/01 01:44:45;;;;;;;1.73;1.10;;;;;;;;;;20917175;28;20274;-69
2022/09/01 01:54:47;;;;;;;2.30;1.13;;;;;;;;;;20900047;28;20210;-69
2022/09/01 02:04:49;;;;;;;1.60;1.00;;;19.00;99.90;;;;;;20915849;28;20211;-69
2022/09/01 02:14:53;;;;;;;0.87;0.73;;;;;;;;;;20915686;28;20205;-69
2022/09/01 02:24:56;;;;;;;1.00;0.80;;;;;;;;;;20914493;28;20243;-69
2022/09/01 02:35:00;;;;;;;1.17;0.83;;;;;;;;;;20913685;28;20258;-70
2022/09/01 02:45:02;;;;;;;1.27;0.87;;;;;;;;;;20914101;28;20213;-70
2022/09/01 02:55:04;;;;;;;2.20;1.10;;;;;;;;;;20895523;28;20200;-69
2022/09/01 03:05:06;;;;;;;0.77;0.70;;;;;;;;;;20911300;28;20215;-69
2022/09/01 03:15:08;;;;;;;1.67;0.90;;;;;;;;;;20910437;28;20208;-69
2022/09/01 03:25:10;;;;;;;0.80;0.70;;;;;;;;;;20909364;28;20216;-69
2022/09/01 03:35:12;;;;;;;0.67;0.50;;;;;;;;;;20908895;28;20265;-69
2022/09/01 03:45:15;;;;;;;1.97;0.63;;;;;;;;;;20891776;28;20644;-69
2022/09/01 03:55:25;;;;;;;1.10;0.70;;;18.60;99.90;;;;;;20890733;28;20212;-69
2022/09/01 04:05:28;;;;;;;3.77;1.30;;;;;;;;;;20906270;28;20269;-69
2022/09/01 04:15:33;;;;;;;0.70;0.50;;;;;;;;;;20905854;28;20211;-69
2022/09/01 04:25:36;;;;;;;1.10;0.70;;;;;;;;;;20905282;28;20211;-70
2022/09/01 04:35:39;;;;;;;1.00;0.80;;;;;;;;;;20904467;28;20190;-70
2022/09/01 04:45:41;;;;;;;1.03;0.70;;;;;;;;;;20903511;28;20848;-70
2022/09/01 04:55:44;;;;;;;1.20;0.60;;;;;;;;;;20886706;28;20213;-70
2022/09/01 05:05:47;;;;;;;0.87;0.60;;;;;;;;;;20903124;28;20212;-69
2022/09/01 05:16:00;;;;;;;2.00;0.70;;;;;;;;;;20912527;28;20193;-70
2022/09/01 05:26:05;;;;;;;1.47;0.73;;;;;;;;;;20918986;28;20210;-69
2022/09/01 05:36:08;;;;;;;2.30;0.70;;;;;;;;;;20901271;28;20260;-69
2022/09/01 05:46:10;;;;;;;0.77;0.53;;;;;;;;;;20917126;28;20223;-69
2022/09/01 05:56:13;;;;;;;0.70;0.57;;;;;;;;;;20917004;28;20314;-68
2022/09/01 06:06:16;;;;;;;1.30;0.70;;;;;;;;;;20915210;28;20218;-67
2022/09/01 06:16:21;;;;;;;1.65;0.65;;;;;;;;;;20921194;22;20273;31
2022/09/01 06:26:31;;;;;;;1.23;0.83;;;18.50;99.90;;;;;;20744899;28;20603;-70
2022/09/01 06:36:36;;;;;;;0.60;0.43;;;;;;;;;;20747235;28;20569;-70
2022/09/01 06:46:38;;;;;;;1.17;0.60;;;;;;;;;;20764451;28;20208;-71
2022/09/01 06:56:39;;;;;;;1.27;0.80;;;;;;;;;;20764625;28;20741;-70
2022/09/01 07:06:42;;;;;;;2.83;0.93;;;;;;;;;;20747748;28;20291;-71
2022/09/01 07:17:02;;;;;;;1.43;1.00;;;;;;;;;;20747206;28;20635;-71
2022/09/01 07:27:04;;;;;;;2.03;1.20;;;;;;;;;;20760675;28;20227;-71
2022/09/01 07:37:07;;;;;;;1.67;1.10;;;;;;;;;;20759591;28;20201;-70
2022/09/01 07:47:13;;;;;;;1.90;1.37;;;;;;;;;;20759818;28;20558;-70
2022/09/01 07:57:15;;;;;;;2.00;1.50;;;;;;;;;;20743618;28;20283;-70
2022/09/01 08:07:17;;;;;;;2.57;1.53;;;;;;;;;;20757595;28;20226;-71
2022/09/01 08:17:20;;;;;;;1.80;1.13;;;;;;;;;;20757689;28;20285;-71
2022/09/01 08:27:21;;;;;;;2.80;1.77;;;;;;;;;;20740493;28;20214;-72
2022/09/01 08:37:24;;;;;;;2.17;1.73;;;;;;;;;;20739755;28;20267;-71
2022/09/01 08:47:26;;;;;;;3.03;2.13;;;;;;;;;;20754639;28;20282;-71
2022/09/01 08:57:32;;;;;;;4.70;3.00;;;;;;;;;;20754728;28;20256;-71
2022/09/01 09:08:09;;;;;;;2.67;1.90;;;20.70;99.90;;;;;;20745796;28;20264;-71
2022/09/01 09:18:16;;;;;;;3.40;2.10;;;;;;;;;;20738957;28;20233;-71
2022/09/01 09:28:17;;;;;;;2.83;1.87;;;;;;;;;;20738571;28;20233;-71
2022/09/01 09:38:31;;;;;;;2.20;1.60;;;;;;;;;;20753562;28;20218;-71
2022/09/01 09:48:34;;;;;;;3.23;1.80;;;;;;;;;;20737179;28;20328;-71
2022/09/01 09:58:38;;;;;;;3.53;1.70;;;21.50;99.90;;;;;;20741493;28;20220;-71
2022/09/01 10:08:44;;;;;;;1.83;1.23;;;;;;;;;;20751706;28;20210;-71
2022/09/01 10:18:47;;;;;;;1.60;1.20;;;22.60;99.90;;;;;;20766073;28;20216;-71
2022/09/01 10:28:52;;;;;;;2.37;1.27;;;;;;;;;;20749673;28;20288;-71
2022/09/01 10:38:55;;;;;;;1.45;1.15;;;;;;;;;;20751113;28;20210;-71
2022/09/01 10:48:57;;;;;;;2.55;1.60;;;;;;;;;;20764366;28;20257;-71
2022/09/01 10:59:04;;;;;;;5.22;1.58;;;;;;;;;;20748248;28;20214;-72
2022/09/01 11:09:06;;;;;;;1.50;1.10;;;;;;;;;;20762808;28;20201;-72
2022/09/01 11:19:32;;;;;;;1.77;1.02;;;22.20;99.90;;;;;;20760663;28;20593;-72
2022/09/01 11:29:53;;;;;;;1.92;1.30;;;;;;;;;;20744716;28;20241;-72
2022/09/01 11:40:00;;;;;;;1.25;0.90;;;22.20;99.90;;;;;;20743302;28;20580;-71
2022/09/01 11:50:04;;;;;;;1.13;0.70;;;;;;;;;;20744332;28;20214;-72
2022/09/01 12:00:11;;;;;;;1.00;0.70;;;;;;;;;;20759695;28;20761;-71
2022/09/01 12:10:29;;;;;;;1.25;0.70;;;;;;;;;;20757341;28;20199;-71
2022/09/01 12:20:32;;;;;;;3.15;0.90;;;;;;;;;;20812665;22;20234;-71
2022/09/01 12:30:38;;;;;;;1.25;0.77;;;22.80;99.90;;;;;;20873609;28;20219;-70
2022/09/01 12:40:41;;;;;;;1.17;0.80;;;;;;;;;;20822638;28;20242;-70
2022/09/01 12:50:44;;;;;;;1.30;0.85;;;24.30;99.90;;;;;;20822277;28;20687;-69
2022/09/01 13:01:08;;;;;;;4.28;0.90;;;23.40;97.30;;;;;;20821249;28;20240;-70
2022/09/01 13:11:13;;;;;;;1.42;0.80;;;;;;;;;;20821992;28;20202;-70
2022/09/01 13:21:15;;;;;;;3.28;0.80;;;;;;;;;;20819679;28;20268;-70
2022/09/01 13:31:17;;;;;;;1.42;0.90;;;;;;;;;;20820633;28;20284;-70
2022/09/01 13:41:19;;;;;;;1.40;0.90;;;;;;;;;;20836639;28;20215;-71
2022/09/01 13:51:25;;;;;;;1.10;0.80;;;;;;;;;;20834344;28;20207;-70
2022/09/01 14:01:28;;;;;;;1.17;0.90;;;;;;;;;;20833204;28;20702;-71
2022/09/01 14:11:31;;;;;;;1.33;0.77;;;;;;;;;;20834097;28;20569;-71
2022/09/01 14:21:32;;;;;;;2.13;0.80;;;;;;;;;;20831759;28;20236;-71
2022/09/01 14:31:36;;;;;;;2.83;0.80;;;;;;;;;;20830803;28;20203;-71
2022/09/01 14:41:38;;;;;;;2.50;0.77;;;;;;;;;;20830240;28;20267;-71
2022/09/01 14:51:40;;;;;;;1.70;0.80;;;;;;;;;;20828246;28;20680;-71
2022/09/01 15:01:42;;;;;;;1.13;0.82;;;;;;;;;;20829385;28;20645;-71
2022/09/01 15:11:43;;;;;;;1.27;1.00;;;;;;;;;;20828063;28;20584;-72
2022/09/01 15:21:46;;;;;;;0.95;0.75;;;24.90;92.30;;;;;;20826064;28;20235;-71
2022/09/01 15:31:47;;;;;;;2.70;0.80;;;;;;;;;;20828325;28;20210;-71
2022/09/01 15:41:49;;;;;;;1.10;0.60;;;;;;;;;;20825823;28;20286;-68
2022/09/01 15:51:54;;;;;;;0.80;0.60;;;;;;;;;;20826261;28;20549;-68
2022/09/01 16:01:56;;;;;;;0.85;0.70;;;;;;;;;;20824587;28;20215;-69
2022/09/01 16:11:58;;;;;;;2.92;0.80;;;;;;;;;;20825318;28;20202;-70
2022/09/01 16:22:20;;;;;;;1.10;0.70;;;;;;;;;;20823113;28;20584;-70
2022/09/01 16:32:22;;;;;;;1.58;0.90;;;24.10;91.90;;;;;;20823079;28;20212;-70
2022/09/01 16:42:49;;;;;;;3.22;1.15;;;24.00;99.90;;;;;;20822789;28;20210;-71
2022/09/01 16:53:07;;;;;;;1.05;0.68;;;23.90;99.90;;;;;;20820940;28;20263;-70
2022/09/01 17:03:16;;;;;;;0.70;0.55;;;;;;;;;;20821628;28;20681;-70
2022/09/01 17:13:24;;;;;;;0.98;0.60;;;23.70;95.00;;;;;;20844294;28;20615;-70
2022/09/01 17:23:27;;;;;;;2.95;0.80;;;;;;;;;;20847439;28;20270;-70
2022/09/01 17:33:32;;;;;;;0.90;0.70;;;;;;;;;;20847981;28;20267;-70
2022/09/01 17:43:54;;;;;;;2.55;0.68;;;23.50;92.00;;;;;;20846699;28;20601;-71
2022/09/01 17:54:15;;;;;;;1.13;0.80;;;23.40;91.40;;;;;;20846407;28;20255;-70
2022/09/01 18:04:46;;;;;;;1.25;0.70;;;23.30;93.70;;;;;;20846533;28;20219;-70
2022/09/01 18:15:07;;;;;;;2.15;0.82;;;;;;;;;;20846072;28;20593;-70
2022/09/01 18:25:21;;;;;;;0.93;0.70;;;23.10;99.90;;;;;;20725858;22;20235;-73
2022/09/01 18:35:28;;;;;;;0.90;0.70;;;;;;;;;;20621747;28;20209;-73
2022/09/01 18:45:53;;;;;;;1.27;0.80;;;22.90;93.10;;;;;;20636760;28;20289;-73
2022/09/01 18:56:13;;;;;;;1.67;0.70;;;;;;;;;;20636114;28;20209;-73
2022/09/01 19:06:24;;;;;;;1.83;0.80;;;;;;;;;;20619058;28;20228;-73
2022/09/01 19:17:10;;;;;;;3.08;1.08;;;22.60;93.20;;;;;;20650579;28;20213;-73
2022/09/01 19:27:15;;;;;;;3.75;1.10;;;22.50;99.90;;;;;;20617537;28;20307;-73
2022/09/01 19:37:17;;;;;;;0.90;0.60;;;;;;;;;;20600129;28;20217;-73
2022/09/01 19:47:40;;;;;;;1.50;0.70;;;22.40;93.40;;;;;;20600553;28;20294;-73
2022/09/01 19:57:56;;;;;;;0.95;0.70;;;22.30;99.90;;;;;;20631049;28;20220;-72
2022/09/01 20:08:12;;;;;;;0.93;0.60;;;;;;;;;;20614238;28;20212;-73
2022/09/01 20:18:28;;;;;;;0.90;0.63;;;22.20;99.90;;;;;;20613708;28;20245;-73
2022/09/01 20:28:47;;;;;;;1.05;0.75;;;22.10;99.90;;;;;;20613185;28;20270;-73
2022/09/01 20:49:12;;;;;;;0.80;0.60;;;21.80;99.40;;;;;;20627222;28;20278;-73
2022/09/01 20:59:22;;;;;;;0.88;0.47;;;;;;;;;;20595477;28;20278;-73
2022/09/01 21:09:45;;;;;;;1.25;0.80;;;21.80;94.90;;;;;;20611139;28;20210;-73
2022/09/01 21:20:08;;;;;;;0.60;0.50;;;21.70;99.90;;;;;;20626558;28;20220;-73
2022/09/01 21:30:13;;;;;;;0.82;0.60;;;21.60;99.90;;;;;;20610127;28;20253;-73
2022/09/01 21:40:17;;;;;;;0.95;0.60;;;21.40;99.90;;;;;;20609833;28;20293;-73
2022/09/01 21:50:22;;;;;;;2.88;0.68;;;21.20;99.90;;;;;;20609476;28;20666;-72
2022/09/01 22:00:29;;;;;;;1.53;0.70;;;21.20;99.90;;;;;;20590802;28;20278;-73
2022/09/01 22:10:31;;;;;;;0.87;0.70;;;21.10;99.90;;;;;;20623747;28;20244;-73
2022/09/01 22:20:34;;;;;;;1.00;0.63;;;;;;;;;;20623138;28;20246;-73
2022/09/01 22:30:35;;;;;;;1.33;0.80;;;;;;;;;;20621993;28;20253;-73
2022/09/01 22:40:48;;;;;;;1.08;0.80;;;;;;;;;;20621623;28;20225;-73
2022/09/01 22:50:50;;;;;;;0.97;0.70;;;;;;;;;;20620466;28;20271;-74
2022/09/01 23:00:55;;;;;;;2.43;1.17;;;20.60;99.90;;;;;;20619799;28;20224;-74
2022/09/01 23:10:56;;;;;;;1.70;0.90;;;;;;;;;;20618689;28;20222;-74
2022/09/01 23:20:58;;;;;;;1.30;0.90;;;;;;;;;;20602144;28;20295;-74
2022/09/01 23:31:00;;;;;;;2.40;1.20;;;;;;;;;;20617832;28;20236;-74
2022/09/01 23:41:12;;;;;;;1.97;0.90;;;20.20;99.90;;;;;;20616654;28;20243;-74
2022/09/01 23:51:16;;;;;;;1.10;0.83;;;20.20;99.90;;;;;;20600651;28;20575;-74
